createdAt,value
2019-03-26T00:01:41.096Z,16.30
2019-03-26T00:04:09.548Z,16.20
2019-03-26T00:06:38.074Z,16.20
2019-03-26T00:09:08.881Z,16.20
2019-03-26T00:11:38.049Z,16.10
2019-03-26T00:14:06.788Z,16.00
2019-03-26T00:16:35.816Z,15.90
2019-03-26T00:19:04.607Z,15.70
2019-03-26T00:21:33.312Z,15.60
2019-03-26T00:24:02.126Z,15.50
2019-03-26T00:26:30.755Z,15.40
2019-03-26T00:28:59.127Z,15.20
2019-03-26T00:31:27.561Z,15.10
2019-03-26T00:33:56.139Z,15.00
2019-03-26T00:36:25.086Z,14.80
2019-03-26T00:38:53.940Z,14.80
2019-03-26T00:41:22.349Z,14.60
2019-03-26T00:43:51.254Z,14.50
2019-03-26T00:46:20.409Z,14.50
2019-03-26T00:48:48.883Z,14.30
2019-03-26T00:51:17.680Z,14.30
2019-03-26T00:53:46.131Z,14.20
2019-03-26T00:56:14.958Z,14.20
2019-03-26T00:58:43.567Z,14.10
2019-03-26T01:01:12.647Z,13.90
2019-03-26T01:03:41.543Z,13.80
2019-03-26T01:06:10.235Z,13.90
2019-03-26T01:08:38.762Z,13.80
2019-03-26T01:11:07.173Z,13.70
2019-03-26T01:13:35.559Z,13.70
2019-03-26T01:16:04.029Z,13.70
2019-03-26T01:18:38.678Z,13.70
2019-03-26T01:21:07.445Z,13.70
2019-03-26T01:23:36.266Z,13.60
2019-03-26T01:26:05.214Z,13.50
2019-03-26T01:28:33.676Z,13.40
2019-03-26T01:31:02.160Z,13.40
2019-03-26T01:33:30.950Z,13.30
2019-03-26T01:35:59.881Z,13.30
2019-03-26T01:38:28.303Z,13.30
2019-03-26T01:40:57.063Z,13.20
2019-03-26T01:43:25.592Z,13.30
2019-03-26T01:45:54.239Z,13.20
2019-03-26T01:48:22.691Z,13.20
2019-03-26T01:50:51.215Z,13.10
2019-03-26T01:53:20.423Z,13.00
2019-03-26T01:55:49.056Z,13.00
2019-03-26T01:58:37.020Z,13.00
2019-03-26T02:01:05.954Z,12.90
2019-03-26T02:03:34.664Z,12.90
2019-03-26T02:06:03.155Z,12.80
2019-03-26T02:08:31.543Z,12.80
2019-03-26T02:11:00.592Z,12.70
2019-03-26T02:13:29.559Z,12.70
2019-03-26T02:15:58.075Z,12.70
2019-03-26T02:18:26.568Z,12.60
2019-03-26T02:20:55.439Z,12.60
2019-03-26T02:23:24.342Z,12.50
2019-03-26T02:25:52.917Z,12.50
2019-03-26T02:28:21.463Z,12.50
2019-03-26T02:30:49.944Z,12.40
2019-03-26T02:33:18.331Z,12.40
2019-03-26T02:35:47.073Z,12.40
2019-03-26T02:38:15.932Z,12.40
2019-03-26T02:40:44.775Z,12.30
2019-03-26T02:43:13.230Z,12.40
2019-03-26T02:45:41.824Z,12.30
2019-03-26T02:48:10.640Z,12.20
2019-03-26T02:50:39.074Z,12.00
2019-03-26T02:53:08.998Z,12.10
2019-03-26T02:55:37.986Z,12.20
2019-03-26T02:58:06.491Z,12.10
2019-03-26T03:00:35.273Z,12.10
2019-03-26T03:03:04.311Z,12.10
2019-03-26T03:05:35.790Z,12.00
2019-03-26T03:08:03.477Z,11.90
2019-03-26T03:10:31.996Z,11.90
2019-03-26T03:13:00.781Z,11.90
2019-03-26T03:15:29.556Z,11.90
2019-03-26T03:17:57.950Z,11.90
2019-03-26T03:20:27.039Z,12.00
2019-03-26T03:22:56.210Z,11.90
2019-03-26T03:25:25.207Z,11.90
2019-03-26T03:27:54.049Z,11.90
2019-03-26T03:30:23.125Z,11.90
2019-03-26T03:32:51.749Z,11.90
2019-03-26T03:35:20.300Z,11.80
2019-03-26T03:37:49.095Z,11.80
2019-03-26T03:40:17.801Z,11.70
2019-03-26T03:42:46.674Z,11.80
2019-03-26T03:45:26.311Z,11.70
2019-03-26T03:47:55.652Z,11.80
2019-03-26T03:50:30.883Z,11.70
2019-03-26T03:53:00.272Z,11.70
2019-03-26T03:55:29.915Z,11.70
2019-03-26T03:58:00.271Z,11.60
2019-03-26T04:00:40.539Z,11.60
2019-03-26T04:03:09.857Z,11.60
2019-03-26T04:05:38.712Z,11.50
2019-03-26T04:08:07.284Z,11.50
2019-03-26T04:10:36.067Z,11.50
2019-03-26T04:13:04.784Z,11.40
2019-03-26T04:15:34.995Z,11.40
2019-03-26T04:18:03.649Z,11.40
2019-03-26T04:20:32.008Z,11.40
2019-03-26T04:23:00.580Z,11.30
2019-03-26T04:25:29.115Z,11.30
2019-03-26T04:27:57.764Z,11.20
2019-03-26T04:30:30.774Z,11.30
2019-03-26T04:32:59.378Z,11.20
2019-03-26T04:35:28.192Z,11.20
2019-03-26T04:37:56.648Z,11.20
2019-03-26T04:40:25.244Z,11.20
2019-03-26T04:42:53.788Z,11.20
2019-03-26T04:45:22.274Z,11.20
2019-03-26T04:47:50.732Z,11.20
2019-03-26T04:50:19.495Z,11.20
2019-03-26T04:52:48.017Z,11.10
2019-03-26T04:55:16.475Z,11.10
2019-03-26T04:57:44.967Z,11.20
2019-03-26T05:00:16.028Z,11.10
2019-03-26T05:02:44.512Z,11.20
2019-03-26T05:05:13.142Z,11.20
2019-03-26T05:07:41.608Z,11.10
2019-03-26T05:10:10.229Z,11.10
2019-03-26T05:12:38.635Z,11.10
2019-03-26T05:15:07.314Z,11.10
2019-03-26T05:17:35.880Z,11.10
2019-03-26T05:20:04.935Z,11.10
2019-03-26T05:22:33.409Z,11.00
2019-03-26T05:25:01.899Z,11.00
2019-03-26T05:27:30.390Z,11.00
2019-03-26T05:29:58.932Z,11.00
2019-03-26T05:32:27.456Z,11.00
2019-03-26T05:34:55.939Z,11.00
2019-03-26T05:37:24.522Z,11.00
2019-03-26T05:39:53.047Z,11.00
2019-03-26T05:42:21.567Z,11.00
2019-03-26T05:44:50.101Z,11.00
2019-03-26T05:47:59.925Z,11.00
2019-03-26T05:50:27.170Z,11.00
2019-03-26T05:52:55.630Z,11.00
2019-03-26T05:55:24.329Z,11.00
2019-03-26T05:57:52.774Z,10.90
2019-03-26T06:00:23.559Z,10.90
2019-03-26T06:02:52.238Z,10.90
2019-03-26T06:05:20.787Z,10.90
2019-03-26T06:07:49.148Z,11.00
2019-03-26T06:10:17.786Z,11.00
2019-03-26T06:12:46.290Z,11.00
2019-03-26T06:15:14.891Z,11.00
2019-03-26T06:17:43.487Z,11.00
2019-03-26T06:20:12.268Z,11.00
2019-03-26T06:22:40.767Z,11.00
2019-03-26T06:25:09.726Z,11.10
2019-03-26T06:27:38.256Z,11.10
2019-03-26T06:30:08.180Z,11.10
2019-03-26T06:32:36.775Z,11.10
2019-03-26T06:35:06.853Z,11.10
2019-03-26T06:37:35.320Z,11.10
2019-03-26T06:40:04.567Z,11.10
2019-03-26T06:42:32.920Z,11.20
2019-03-26T06:45:01.319Z,11.20
2019-03-26T06:47:29.715Z,11.10
2019-03-26T06:49:58.263Z,11.10
2019-03-26T06:52:26.851Z,11.10
2019-03-26T06:54:55.316Z,11.10
2019-03-26T06:57:34.932Z,11.10
2019-03-26T06:59:54.194Z,11.10
2019-03-26T07:02:36.659Z,11.20
2019-03-26T07:05:19.276Z,11.20
2019-03-26T07:08:01.663Z,11.20
2019-03-26T07:10:43.915Z,11.20
2019-03-26T07:13:26.454Z,11.20
2019-03-26T07:16:08.504Z,11.20
2019-03-26T07:18:51.773Z,11.20
2019-03-26T07:21:49.733Z,11.20
2019-03-26T07:24:16.510Z,11.20
2019-03-26T07:26:58.503Z,11.20
2019-03-26T07:29:41.483Z,11.20
2019-03-26T07:32:39.255Z,11.20
2019-03-26T07:36:00.631Z,11.20
2019-03-26T07:38:27.520Z,11.30
2019-03-26T07:40:56.114Z,11.30
2019-03-26T07:43:35.116Z,11.30
2019-03-26T07:46:18.036Z,11.30
2019-03-26T07:49:15.496Z,11.20
2019-03-26T07:51:43.904Z,11.30
2019-03-26T07:54:51.124Z,11.30
2019-03-26T07:57:19.664Z,11.40
2019-03-26T07:59:48.170Z,11.30
2019-03-26T08:02:16.647Z,11.40
2019-03-26T08:04:45.146Z,11.40
2019-03-26T08:07:13.633Z,11.40
2019-03-26T08:09:42.051Z,11.40
2019-03-26T08:12:10.532Z,11.50
2019-03-26T08:15:04.688Z,11.50
2019-03-26T08:18:13.075Z,11.50
2019-03-26T08:24:14.845Z,11.60
2019-03-26T08:26:58.876Z,11.70
2019-03-26T08:29:41.474Z,11.70
2019-03-26T08:32:09.865Z,11.70
2019-03-26T08:34:38.518Z,11.70
2019-03-26T08:37:06.975Z,11.70
2019-03-26T08:39:35.858Z,11.70
2019-03-26T08:42:18.557Z,11.80
2019-03-26T08:45:01.108Z,11.80
2019-03-26T08:47:30.338Z,11.80
2019-03-26T08:50:12.932Z,11.80
2019-03-26T08:52:55.502Z,11.80
2019-03-26T08:55:38.984Z,11.80
2019-03-26T08:58:21.599Z,11.80
2019-03-26T09:01:03.864Z,11.80
2019-03-26T09:03:47.171Z,11.70
2019-03-26T09:06:29.522Z,11.80
2019-03-26T09:09:12.463Z,11.80
2019-03-26T09:11:55.397Z,11.90
2019-03-26T09:14:59.317Z,11.80
2019-03-26T09:17:40.379Z,11.90
2019-03-26T09:20:23.132Z,11.90
2019-03-26T09:23:05.779Z,11.90
2019-03-26T09:25:48.646Z,11.90
2019-03-26T09:28:30.746Z,11.80
2019-03-26T09:31:13.932Z,11.90
2019-03-26T09:33:58.044Z,11.90
2019-03-26T09:36:40.471Z,12.00
2019-03-26T09:39:23.195Z,12.10
2019-03-26T09:42:04.984Z,12.10
2019-03-26T09:44:47.461Z,12.00
2019-03-26T09:47:16.836Z,12.10
2019-03-26T09:49:45.404Z,12.10
2019-03-26T09:52:13.840Z,12.10
2019-03-26T09:54:42.311Z,12.10
2019-03-26T09:57:21.416Z,12.10
2019-03-26T10:00:03.105Z,12.20
2019-03-26T10:02:45.849Z,12.20
2019-03-26T10:05:14.354Z,12.20
2019-03-26T10:07:42.936Z,12.20
2019-03-26T10:10:12.455Z,12.20
2019-03-26T10:12:40.924Z,12.30
2019-03-26T10:15:27.496Z,12.30
2019-03-26T10:17:55.968Z,12.30
2019-03-26T10:20:24.488Z,12.40
2019-03-26T10:23:21.660Z,12.50
2019-03-26T10:26:41.653Z,12.50
2019-03-26T10:29:19.013Z,12.60
2019-03-26T10:31:39.210Z,12.70
2019-03-26T10:34:21.858Z,12.80
2019-03-26T10:37:04.424Z,13.40
2019-03-26T10:39:39.868Z,14.20
2019-03-26T10:42:08.442Z,14.10
2019-03-26T10:44:36.990Z,14.80
2019-03-26T10:47:05.371Z,14.60
2019-03-26T10:49:33.872Z,14.50
2019-03-26T10:52:09.151Z,14.40
2019-03-26T10:54:51.461Z,14.60
2019-03-26T10:58:15.352Z,14.70
2019-03-26T11:01:28.514Z,14.90
2019-03-26T11:04:49.777Z,15.80
2019-03-26T11:08:10.669Z,17.20
2019-03-26T11:19:11.604Z,20.00
2019-03-26T11:26:37.317Z,21.20
2019-03-26T11:29:58.875Z,21.60
2019-03-26T11:33:20.744Z,21.90
2019-03-26T11:36:40.809Z,22.10
2019-03-26T11:46:41.423Z,22.80
2019-03-26T11:49:09.801Z,23.00
2019-03-26T11:51:38.368Z,23.10
2019-03-26T11:54:06.963Z,23.30
2019-03-26T11:56:35.426Z,23.50
2019-03-26T11:59:30.191Z,23.70
2019-03-26T12:02:15.745Z,23.80
2019-03-26T12:04:44.151Z,23.90
2019-03-26T12:07:12.654Z,23.70
2019-03-26T12:09:54.835Z,23.90
2019-03-26T12:12:23.366Z,23.90
2019-03-26T12:15:15.662Z,23.70
2019-03-26T12:17:43.963Z,23.80
2019-03-26T12:20:12.686Z,24.00
2019-03-26T12:22:41.122Z,24.00
2019-03-26T12:25:09.916Z,24.20
2019-03-26T12:27:38.375Z,24.40
2019-03-26T12:30:07.541Z,24.40
2019-03-26T12:32:50.084Z,24.30
2019-03-26T12:35:42.195Z,24.30
2019-03-26T12:38:48.887Z,24.40
2019-03-26T12:41:17.216Z,24.60
2019-03-26T12:44:01.143Z,24.60
2019-03-26T12:46:58.579Z,24.80
2019-03-26T12:50:21.571Z,25.00
2019-03-26T12:53:03.923Z,25.00
2019-03-26T12:56:35.323Z,24.90
2019-03-26T12:59:44.606Z,25.00
2019-03-26T13:03:08.090Z,25.00
2019-03-26T13:06:52.060Z,25.30
2019-03-26T13:10:19.499Z,25.30
2019-03-26T13:13:42.254Z,25.30
2019-03-26T13:16:36.365Z,25.40
2019-03-26T13:19:05.295Z,25.40
2019-03-26T13:21:33.713Z,25.40
2019-03-26T13:24:02.195Z,25.60
2019-03-26T13:26:30.670Z,25.80
2019-03-26T13:28:59.159Z,25.80
2019-03-26T13:31:27.575Z,25.80
2019-03-26T13:33:56.105Z,25.90
2019-03-26T13:36:24.633Z,26.00
2019-03-26T13:38:53.117Z,26.30
2019-03-26T13:41:21.647Z,26.20
2019-03-26T13:43:50.297Z,26.50
2019-03-26T13:46:18.688Z,26.60
2019-03-26T13:48:47.161Z,26.40
2019-03-26T13:51:15.567Z,26.50
2019-03-26T13:53:43.962Z,26.60
2019-03-26T13:56:12.568Z,26.80
2019-03-26T13:58:41.747Z,27.10
2019-03-26T14:01:10.222Z,27.00
2019-03-26T14:03:39.004Z,27.10
2019-03-26T14:06:07.527Z,27.10
2019-03-26T14:08:36.407Z,27.40
2019-03-26T14:11:05.793Z,27.40
2019-03-26T14:13:34.393Z,27.40
2019-03-26T14:16:23.477Z,27.30
2019-03-26T14:18:52.718Z,27.20
2019-03-26T14:21:22.333Z,27.50
2019-03-26T14:23:51.787Z,27.50
2019-03-26T14:26:20.608Z,27.50
2019-03-26T14:28:50.224Z,27.50
2019-03-26T14:31:19.019Z,27.30
2019-03-26T14:33:48.436Z,27.50
2019-03-26T14:36:17.281Z,27.30
2019-03-26T14:38:46.238Z,27.40
2019-03-26T14:41:16.398Z,27.30
2019-03-26T14:43:53.214Z,27.40
2019-03-26T14:46:24.704Z,27.50
2019-03-26T14:49:22.542Z,27.50
2019-03-26T14:51:55.480Z,27.50
2019-03-26T14:54:29.932Z,27.50
2019-03-26T14:56:58.907Z,27.30
2019-03-26T14:59:34.016Z,27.40
2019-03-26T15:02:02.552Z,27.40
2019-03-26T15:04:30.998Z,27.50
2019-03-26T15:06:59.499Z,27.70
2019-03-26T15:09:28.043Z,27.60
2019-03-26T15:11:56.553Z,27.60
2019-03-26T15:14:54.790Z,27.10
2019-03-26T15:17:22.583Z,26.80
2019-03-26T15:19:54.775Z,26.80
2019-03-26T15:22:21.759Z,26.60
2019-03-26T15:24:50.218Z,26.40
2019-03-26T15:27:18.739Z,26.60
2019-03-26T15:29:47.315Z,26.20
2019-03-26T15:32:15.890Z,26.20
2019-03-26T15:34:44.345Z,25.60
2019-03-26T15:37:12.859Z,25.60
2019-03-26T15:39:41.322Z,25.40
2019-03-26T15:42:09.871Z,25.30
2019-03-26T15:44:38.299Z,25.20
2019-03-26T15:47:06.803Z,25.00
2019-03-26T15:49:35.172Z,25.00
2019-03-26T15:52:03.667Z,24.70
2019-03-26T15:54:32.195Z,24.40
2019-03-26T15:57:00.592Z,24.10
2019-03-26T15:59:29.196Z,24.00
2019-03-26T16:01:57.584Z,23.80
2019-03-26T16:04:26.088Z,23.50
2019-03-26T16:06:54.696Z,23.30
2019-03-26T16:09:24.785Z,23.40
2019-03-26T16:12:02.773Z,23.20
2019-03-26T16:14:43.768Z,23.40
2019-03-26T16:17:29.407Z,23.40
2019-03-26T16:20:07.587Z,23.10
2019-03-26T16:22:43.102Z,23.10
2019-03-26T16:25:19.650Z,22.80
2019-03-26T16:27:54.994Z,22.80
2019-03-26T16:30:34.342Z,22.40
2019-03-26T16:33:10.235Z,22.20
2019-03-26T16:35:42.988Z,21.90
2019-03-26T16:38:13.409Z,21.80
2019-03-26T16:40:50.679Z,21.50
2019-03-26T16:43:28.068Z,21.50
2019-03-26T16:46:04.922Z,21.40
2019-03-26T16:48:44.543Z,21.30
2019-03-26T16:51:21.147Z,21.10
2019-03-26T16:54:00.592Z,21.00
2019-03-26T16:56:38.132Z,20.70
2019-03-26T16:59:15.066Z,20.60
2019-03-26T17:01:50.643Z,20.40
2019-03-26T17:04:27.355Z,20.30
2019-03-26T17:07:03.669Z,20.30
2019-03-26T17:09:37.420Z,20.10
2019-03-26T17:12:16.150Z,19.80
2019-03-26T17:15:19.849Z,19.60
2019-03-26T17:18:04.215Z,19.50
2019-03-26T17:20:41.989Z,19.40
2019-03-26T17:23:24.666Z,19.30
2019-03-26T17:26:00.061Z,19.30
2019-03-26T17:28:28.499Z,19.30
2019-03-26T17:30:56.962Z,19.20
2019-03-26T17:33:28.829Z,19.10
2019-03-26T17:35:55.680Z,18.90
2019-03-26T17:38:24.236Z,18.80
2019-03-26T17:40:52.695Z,18.80
2019-03-26T17:43:21.227Z,18.60
2019-03-26T17:45:49.694Z,18.50
2019-03-26T17:48:18.316Z,18.50
2019-03-26T17:50:46.830Z,18.50
2019-03-26T17:53:15.692Z,18.50
2019-03-26T17:55:44.254Z,18.20
2019-03-26T17:58:12.615Z,18.00
2019-03-26T18:00:46.175Z,18.00
2019-03-26T18:03:25.768Z,17.90
2019-03-26T18:05:45.223Z,17.90
2019-03-26T18:08:13.904Z,17.80
2019-03-26T18:10:42.403Z,17.70
2019-03-26T18:13:10.918Z,17.70
2019-03-26T18:16:21.296Z,17.70
2019-03-26T18:18:48.122Z,17.60
2019-03-26T18:21:16.701Z,17.50
2019-03-26T18:23:45.169Z,17.50
2019-03-26T18:26:13.675Z,17.50
2019-03-26T18:28:42.936Z,17.50
2019-03-26T18:31:11.350Z,17.40
2019-03-26T18:33:40.492Z,17.40
2019-03-26T18:36:09.036Z,17.30
2019-03-26T18:38:37.485Z,17.30
2019-03-26T18:41:10.211Z,17.20
2019-03-26T18:43:38.795Z,17.20
2019-03-26T18:46:07.269Z,17.20
2019-03-26T18:48:35.658Z,17.20
2019-03-26T18:51:04.237Z,17.00
2019-03-26T18:53:32.714Z,17.00
2019-03-26T18:56:01.240Z,17.00
2019-03-26T18:58:29.723Z,16.80
2019-03-26T19:00:58.376Z,16.90
2019-03-26T19:03:26.819Z,16.90
2019-03-26T19:05:55.303Z,16.70
2019-03-26T19:08:23.770Z,16.80
2019-03-26T19:10:52.260Z,16.70
2019-03-26T19:13:21.671Z,16.70
2019-03-26T19:16:20.124Z,16.60
2019-03-26T19:18:48.175Z,16.70
2019-03-26T19:21:17.942Z,16.60
2019-03-26T19:23:46.410Z,16.60
2019-03-26T19:26:14.863Z,16.60
2019-03-26T19:28:43.747Z,16.60
2019-03-26T19:31:12.087Z,16.50
2019-03-26T19:33:44.427Z,16.50
2019-03-26T19:36:15.486Z,16.40
2019-03-26T19:38:45.639Z,16.50
2019-03-26T19:41:17.363Z,16.40
2019-03-26T19:43:45.875Z,16.40
2019-03-26T19:46:14.302Z,16.30
2019-03-26T19:48:43.449Z,16.30
2019-03-26T19:51:11.866Z,16.20
2019-03-26T19:53:40.330Z,16.20
2019-03-26T19:56:08.887Z,16.20
2019-03-26T19:58:37.530Z,16.10
2019-03-26T20:01:06.219Z,16.10
2019-03-26T20:03:34.829Z,16.00
2019-03-26T20:06:13.490Z,16.00
2019-03-26T20:08:34.687Z,16.00
2019-03-26T20:11:03.150Z,16.00
2019-03-26T20:13:56.858Z,15.90
2019-03-26T20:17:12.621Z,15.90
2019-03-26T20:20:24.043Z,15.90
2019-03-26T20:23:17.803Z,15.80
2019-03-26T20:25:46.360Z,15.70
2019-03-26T20:28:14.983Z,15.70
2019-03-26T20:30:43.952Z,15.70
2019-03-26T20:33:12.769Z,15.60
2019-03-26T20:35:45.859Z,15.50
2019-03-26T20:38:18.906Z,15.50
2019-03-26T20:40:51.719Z,15.40
2019-03-26T20:43:36.501Z,15.40
2019-03-26T20:45:54.756Z,15.40
2019-03-26T20:48:26.767Z,15.30
2019-03-26T20:50:58.531Z,15.30
2019-03-26T20:53:31.890Z,15.30
2019-03-26T20:56:05.069Z,15.30
2019-03-26T20:58:38.291Z,15.20
2019-03-26T21:01:10.914Z,15.10
2019-03-26T21:03:39.399Z,15.20
2019-03-26T21:06:11.984Z,15.20
2019-03-26T21:08:41.491Z,15.10
2019-03-26T21:11:09.996Z,15.10
2019-03-26T21:13:50.200Z,15.10
2019-03-26T21:17:08.428Z,15.10
2019-03-26T21:20:09.050Z,15.10
2019-03-26T21:22:37.085Z,15.00
2019-03-26T21:25:05.888Z,14.90
2019-03-26T21:28:19.904Z,14.90
2019-03-26T21:30:46.623Z,14.90
2019-03-26T21:33:15.374Z,14.90
2019-03-26T21:35:44.535Z,14.80
2019-03-26T21:38:13.036Z,14.90
2019-03-26T21:40:41.507Z,14.90
2019-03-26T21:43:09.935Z,14.80
2019-03-26T21:45:39.450Z,14.70
2019-03-26T21:48:08.902Z,14.70
2019-03-26T21:50:37.304Z,14.70
2019-03-26T21:53:06.299Z,14.70
2019-03-26T21:55:35.053Z,14.60
2019-03-26T21:58:03.706Z,14.60
2019-03-26T22:00:32.115Z,14.60
2019-03-26T22:03:00.615Z,14.50
2019-03-26T22:05:29.166Z,14.50
2019-03-26T22:07:57.647Z,14.50
2019-03-26T22:10:26.228Z,14.50
2019-03-26T22:12:54.692Z,14.40
2019-03-26T22:15:59.285Z,14.40
2019-03-26T22:18:26.582Z,14.40
2019-03-26T22:20:55.198Z,14.30
2019-03-26T22:23:23.718Z,14.30
2019-03-26T22:25:52.183Z,14.20
2019-03-26T22:28:20.634Z,14.10
2019-03-26T22:30:49.112Z,14.10
2019-03-26T22:33:17.602Z,14.10
2019-03-26T22:35:46.344Z,14.10
2019-03-26T22:38:14.826Z,14.00
2019-03-26T22:40:43.234Z,14.00
2019-03-26T22:43:11.746Z,14.00
2019-03-26T22:45:40.411Z,14.10
2019-03-26T22:48:09.055Z,14.00
2019-03-26T22:50:37.480Z,13.90
2019-03-26T22:53:05.971Z,13.90
2019-03-26T22:55:34.479Z,13.90
2019-03-26T22:58:02.942Z,13.90
2019-03-26T23:00:35.006Z,13.80
2019-03-26T23:03:04.699Z,13.90
2019-03-26T23:05:33.519Z,13.90
2019-03-26T23:08:02.172Z,13.90
2019-03-26T23:10:30.679Z,13.80
2019-03-26T23:12:59.186Z,13.80
2019-03-26T23:15:28.443Z,13.60
2019-03-26T23:17:56.999Z,13.60
2019-03-26T23:20:25.751Z,13.50
2019-03-26T23:22:54.500Z,13.50
2019-03-26T23:25:23.221Z,13.50
2019-03-26T23:27:52.225Z,13.50
2019-03-26T23:30:21.222Z,13.50
2019-03-26T23:32:49.762Z,13.50
2019-03-26T23:35:18.551Z,13.50
2019-03-26T23:37:47.123Z,13.40
2019-03-26T23:40:16.241Z,13.40
2019-03-26T23:42:44.699Z,13.20
2019-03-26T23:45:13.254Z,13.30
2019-03-26T23:47:41.678Z,13.30
2019-03-26T23:50:10.419Z,13.30
2019-03-26T23:52:38.966Z,13.30
2019-03-26T23:55:08.075Z,13.30
2019-03-26T23:57:37.530Z,13.30
